createdAt,value
2017-07-05T00:00:17.338Z,80.30
2017-07-05T00:02:45.652Z,80.30
2017-07-05T00:05:13.982Z,80.30
2017-07-05T00:07:42.298Z,80.40
2017-07-05T00:10:10.625Z,80.40
2017-07-05T00:12:38.936Z,80.40
2017-07-05T00:15:07.275Z,80.20
2017-07-05T00:17:35.585Z,80.20
2017-07-05T00:20:03.901Z,80.30
2017-07-05T00:22:32.234Z,80.40
2017-07-05T00:25:00.548Z,80.40
2017-07-05T00:27:28.888Z,80.50
2017-07-05T00:29:57.202Z,80.50
2017-07-05T00:32:25.550Z,80.40
2017-07-05T00:34:53.856Z,80.30
2017-07-05T00:37:22.195Z,80.50
2017-07-05T00:39:50.523Z,80.60
2017-07-05T00:42:18.867Z,80.90
2017-07-05T00:44:47.185Z,81.20
2017-07-05T00:47:15.509Z,81.30
2017-07-05T00:49:43.846Z,81.30
2017-07-05T00:52:12.168Z,81.30
2017-07-05T00:54:40.508Z,81.20
2017-07-05T00:57:08.821Z,81.30
2017-07-05T00:59:37.156Z,81.20
2017-07-05T01:02:05.470Z,81.10
2017-07-05T01:04:33.821Z,81.10
2017-07-05T01:07:02.147Z,81.20
2017-07-05T01:09:30.487Z,81.30
2017-07-05T01:11:58.806Z,81.40
2017-07-05T01:14:27.116Z,81.40
2017-07-05T01:16:55.458Z,81.40
2017-07-05T01:19:23.782Z,81.20
2017-07-05T01:21:52.125Z,81.40
2017-07-05T01:24:20.441Z,81.50
2017-07-05T01:26:48.780Z,82.40
2017-07-05T01:29:17.095Z,81.60
2017-07-05T01:31:45.434Z,81.60
2017-07-05T01:34:13.754Z,81.60
2017-07-05T01:36:42.112Z,81.50
2017-07-05T01:39:10.426Z,81.60
2017-07-05T01:41:38.736Z,81.70
2017-07-05T01:44:07.074Z,81.80
2017-07-05T01:46:35.393Z,81.70
2017-07-05T01:49:03.729Z,81.70
2017-07-05T01:51:32.037Z,81.70
2017-07-05T01:54:00.372Z,81.60
2017-07-05T01:56:28.684Z,81.70
2017-07-05T01:58:57.018Z,81.90
2017-07-05T02:01:25.331Z,81.90
2017-07-05T02:03:53.679Z,81.80
2017-07-05T02:06:21.995Z,81.80
2017-07-05T02:08:50.303Z,81.70
2017-07-05T02:11:18.642Z,81.70
2017-07-05T02:13:46.957Z,81.70
2017-07-05T02:16:15.300Z,81.70
2017-07-05T02:18:43.665Z,81.60
2017-07-05T02:21:12.005Z,81.70
2017-07-05T02:23:40.317Z,81.80
2017-07-05T02:26:08.652Z,81.90
2017-07-05T02:28:36.979Z,81.90
2017-07-05T02:31:05.324Z,81.80
2017-07-05T02:33:33.645Z,81.90
2017-07-05T02:36:01.957Z,81.90
2017-07-05T02:38:30.301Z,81.90
2017-07-05T02:40:58.621Z,82.00
2017-07-05T02:43:26.959Z,82.00
2017-07-05T02:45:55.282Z,81.90
2017-07-05T02:48:23.706Z,82.10
2017-07-05T02:50:52.017Z,82.20
2017-07-05T02:53:20.356Z,82.20
2017-07-05T02:55:48.673Z,82.20
2017-07-05T02:58:17.017Z,82.30
2017-07-05T03:00:45.341Z,82.20
2017-07-05T03:03:14.672Z,82.20
2017-07-05T03:05:43.010Z,82.00
2017-07-05T03:08:11.325Z,82.20
2017-07-05T03:10:39.665Z,82.20
2017-07-05T03:13:07.984Z,82.30
2017-07-05T03:15:36.317Z,82.20
2017-07-05T03:18:04.627Z,82.20
2017-07-05T03:20:32.960Z,82.20
2017-07-05T03:23:01.281Z,82.20
2017-07-05T03:25:29.631Z,82.20
2017-07-05T03:27:57.946Z,82.20
2017-07-05T03:30:26.260Z,82.10
2017-07-05T03:32:54.613Z,82.00
2017-07-05T03:35:22.931Z,82.00
2017-07-05T03:37:51.264Z,81.90
2017-07-05T03:40:19.590Z,81.70
2017-07-05T03:42:47.930Z,81.60
2017-07-05T03:45:16.239Z,81.60
2017-07-05T03:47:44.574Z,81.60
2017-07-05T03:50:12.902Z,81.50
2017-07-05T03:52:41.247Z,81.40
2017-07-05T03:55:09.561Z,81.20
2017-07-05T03:57:37.876Z,81.30
2017-07-05T04:00:06.250Z,81.20
2017-07-05T04:02:34.622Z,81.00
2017-07-05T04:05:02.957Z,80.80
2017-07-05T04:07:31.268Z,80.70
2017-07-05T04:09:59.602Z,80.20
2017-07-05T04:12:28.953Z,78.00
2017-07-05T04:14:57.293Z,74.90
2017-07-05T04:17:26.628Z,71.70
2017-07-05T04:19:54.969Z,68.70
2017-07-05T04:22:23.388Z,66.30
2017-07-05T04:24:51.698Z,64.90
2017-07-05T04:27:20.091Z,65.80
2017-07-05T04:29:48.402Z,67.30
2017-07-05T04:32:16.821Z,68.60
2017-07-05T04:34:45.130Z,69.90
2017-07-05T04:37:13.483Z,70.80
2017-07-05T04:39:41.824Z,70.70
2017-07-05T04:42:10.161Z,69.50
2017-07-05T04:44:39.409Z,67.80
2017-07-05T04:47:07.741Z,65.50
2017-07-05T04:49:36.058Z,63.30
2017-07-05T04:52:04.365Z,61.50
2017-07-05T04:54:32.753Z,59.70
2017-07-05T04:57:01.064Z,58.90
2017-07-05T04:59:29.397Z,58.00
2017-07-05T05:01:57.709Z,57.40
2017-07-05T05:04:26.056Z,57.10
2017-07-05T05:06:54.364Z,56.60
2017-07-05T05:09:22.710Z,56.40
2017-07-05T05:11:51.034Z,56.10
2017-07-05T05:14:19.388Z,56.20
2017-07-05T05:16:47.706Z,56.20
2017-07-05T05:19:16.093Z,56.40
2017-07-05T05:21:44.424Z,56.80
2017-07-05T05:24:12.752Z,58.00
2017-07-05T05:26:41.092Z,59.20
2017-07-05T05:29:09.419Z,60.40
2017-07-05T05:31:37.770Z,61.70
2017-07-05T05:34:07.085Z,63.00
2017-07-05T05:36:35.429Z,64.00
2017-07-05T05:39:03.745Z,64.70
2017-07-05T05:41:32.073Z,65.00
2017-07-05T05:44:02.461Z,65.50
2017-07-05T05:46:30.782Z,66.30
2017-07-05T05:48:59.128Z,66.70
2017-07-05T05:51:27.445Z,66.80
2017-07-05T05:53:55.785Z,66.70
2017-07-05T05:56:24.101Z,66.30
2017-07-05T05:58:52.444Z,66.00
2017-07-05T06:01:20.764Z,65.80
2017-07-05T06:03:49.087Z,65.50
2017-07-05T06:06:17.426Z,65.00
2017-07-05T06:08:45.744Z,64.50
2017-07-05T06:11:14.081Z,64.40
2017-07-05T06:13:42.392Z,64.00
2017-07-05T06:16:10.766Z,63.70
2017-07-05T06:18:39.077Z,63.30
2017-07-05T06:21:07.413Z,64.30
2017-07-05T06:23:35.797Z,63.10
2017-07-05T06:26:04.155Z,62.90
2017-07-05T06:28:32.488Z,62.50
2017-07-05T06:31:00.031Z,62.50
2017-07-05T06:33:28.392Z,61.70
2017-07-05T06:35:56.708Z,61.30
2017-07-05T06:38:25.015Z,61.50
2017-07-05T06:40:53.346Z,60.90
2017-07-05T06:43:21.674Z,60.40
2017-07-05T06:45:50.003Z,59.90
2017-07-05T06:48:18.420Z,59.60
2017-07-05T06:50:46.769Z,59.60
2017-07-05T06:53:15.092Z,59.10
2017-07-05T06:55:43.401Z,59.00
2017-07-05T06:58:11.760Z,58.80
2017-07-05T07:00:40.073Z,58.30
2017-07-05T07:03:08.407Z,58.20
2017-07-05T07:05:37.704Z,58.10
2017-07-05T07:08:06.046Z,58.50
2017-07-05T07:10:34.359Z,58.10
2017-07-05T07:13:02.672Z,57.40
2017-07-05T07:15:31.033Z,57.30
2017-07-05T07:17:59.342Z,56.40
2017-07-05T07:20:27.685Z,55.60
2017-07-05T07:22:56.002Z,55.20
2017-07-05T07:25:24.348Z,54.30
2017-07-05T07:27:52.661Z,53.60
2017-07-05T07:30:21.006Z,53.50
2017-07-05T07:32:49.343Z,52.60
2017-07-05T07:35:17.657Z,51.30
2017-07-05T07:37:45.993Z,51.10
2017-07-05T07:40:14.302Z,51.20
2017-07-05T07:42:42.638Z,50.40
2017-07-05T07:45:10.956Z,49.00
2017-07-05T07:47:39.335Z,48.10
2017-07-05T07:50:07.656Z,46.90
2017-07-05T07:52:35.996Z,47.00
2017-07-05T07:55:04.308Z,46.20
2017-07-05T07:57:32.626Z,45.60
2017-07-05T08:00:00.968Z,45.70
2017-07-05T08:02:29.284Z,46.20
2017-07-05T08:04:57.616Z,46.50
2017-07-05T08:07:25.927Z,46.80
2017-07-05T08:09:54.263Z,46.50
2017-07-05T08:12:22.592Z,45.90
2017-07-05T08:14:50.932Z,45.30
2017-07-05T08:17:19.243Z,44.10
2017-07-05T08:19:47.561Z,43.30
2017-07-05T08:22:15.924Z,42.80
2017-07-05T08:24:44.238Z,43.00
2017-07-05T08:27:12.571Z,42.70
2017-07-05T08:29:40.885Z,41.80
2017-07-05T08:32:09.225Z,40.80
2017-07-05T08:34:37.542Z,41.90
2017-07-05T08:37:05.878Z,41.50
2017-07-05T08:39:34.187Z,41.80
2017-07-05T08:42:02.492Z,42.10
2017-07-05T08:44:30.828Z,41.20
2017-07-05T08:46:59.167Z,41.10
2017-07-05T08:49:27.501Z,41.00
2017-07-05T08:51:55.824Z,40.10
2017-07-05T08:54:24.162Z,39.20
2017-07-05T08:56:53.457Z,39.40
2017-07-05T08:59:21.802Z,39.30
2017-07-05T09:01:50.123Z,39.60
2017-07-05T09:04:18.437Z,40.30
2017-07-05T09:06:46.776Z,40.50
2017-07-05T09:09:15.088Z,40.10
2017-07-05T09:11:43.435Z,39.80
2017-07-05T09:14:11.749Z,39.30
2017-07-05T09:16:40.084Z,39.40
2017-07-05T09:19:08.394Z,39.40
2017-07-05T09:21:36.746Z,38.70
2017-07-05T09:24:05.057Z,38.40
2017-07-05T09:26:33.368Z,39.10
2017-07-05T09:29:01.706Z,37.40
2017-07-05T09:31:30.015Z,37.20
2017-07-05T09:33:58.351Z,37.10
2017-07-05T09:36:26.666Z,37.60
2017-07-05T09:38:55.009Z,36.70
2017-07-05T09:41:23.322Z,36.40
2017-07-05T09:43:51.658Z,37.30
2017-07-05T09:46:20.059Z,37.00
2017-07-05T09:48:48.406Z,36.40
2017-07-05T09:51:17.840Z,36.30
2017-07-05T09:53:46.157Z,35.10
2017-07-05T09:56:14.505Z,35.20
2017-07-05T09:58:42.818Z,35.40
2017-07-05T10:01:11.270Z,34.90
2017-07-05T10:03:39.584Z,35.00
2017-07-05T10:06:08.022Z,35.70
2017-07-05T10:08:36.382Z,35.10
2017-07-05T10:11:04.718Z,34.80
2017-07-05T10:13:33.030Z,34.80
2017-07-05T10:16:01.405Z,34.20
2017-07-05T10:18:29.737Z,34.00
2017-07-05T10:20:57.281Z,34.10
2017-07-05T10:23:25.620Z,33.60
2017-07-05T10:25:53.932Z,33.30
2017-07-05T10:28:22.266Z,33.40
2017-07-05T10:30:50.587Z,33.90
2017-07-05T10:33:18.924Z,33.90
2017-07-05T10:35:47.247Z,34.40
2017-07-05T10:38:15.560Z,33.60
2017-07-05T10:40:43.892Z,32.60
2017-07-05T10:43:12.204Z,32.80
2017-07-05T10:45:40.547Z,32.80
2017-07-05T10:48:08.858Z,32.40
2017-07-05T10:50:37.190Z,31.80
2017-07-05T10:53:05.505Z,32.60
2017-07-05T10:55:33.844Z,33.00
2017-07-05T10:58:02.157Z,32.10
2017-07-05T11:00:30.471Z,32.60
2017-07-05T11:02:58.817Z,32.60
2017-07-05T11:05:27.135Z,34.00
2017-07-05T11:07:55.478Z,34.90
2017-07-05T11:10:23.790Z,34.30
2017-07-05T11:12:52.134Z,34.40
2017-07-05T11:15:20.455Z,35.10
2017-07-05T11:17:48.770Z,34.30
2017-07-05T11:20:17.800Z,33.80
2017-07-05T11:22:46.125Z,32.80
2017-07-05T11:25:14.465Z,33.50
2017-07-05T11:27:42.782Z,33.80
2017-07-05T11:30:11.117Z,34.80
2017-07-05T11:32:39.432Z,35.30
2017-07-05T11:35:07.766Z,34.80
2017-07-05T11:37:36.088Z,33.90
2017-07-05T11:40:04.400Z,33.40
2017-07-05T11:42:32.738Z,32.70
2017-07-05T11:45:01.061Z,32.70
2017-07-05T11:47:29.395Z,33.00
2017-07-05T11:49:57.705Z,32.70
2017-07-05T11:52:26.048Z,32.00
2017-07-05T11:54:54.359Z,32.00
2017-07-05T11:57:22.707Z,31.50
2017-07-05T11:59:51.019Z,31.00
2017-07-05T12:02:19.333Z,31.30
2017-07-05T12:04:47.670Z,31.80
2017-07-05T12:07:15.987Z,31.30
2017-07-05T12:09:44.319Z,31.10
2017-07-05T12:12:12.634Z,30.90
2017-07-05T12:14:40.974Z,31.90
2017-07-05T12:17:09.285Z,31.40
2017-07-05T12:19:37.638Z,31.10
2017-07-05T12:22:05.957Z,31.10
2017-07-05T12:24:34.282Z,30.70
2017-07-05T12:27:02.615Z,30.40
2017-07-05T12:29:30.936Z,30.20
2017-07-05T12:31:59.269Z,30.00
2017-07-05T12:34:27.580Z,30.30
2017-07-05T12:36:55.929Z,30.40
2017-07-05T12:39:24.239Z,30.30
2017-07-05T12:41:52.556Z,30.00
2017-07-05T12:44:20.955Z,30.60
2017-07-05T12:46:49.294Z,31.20
2017-07-05T12:49:17.648Z,31.20
2017-07-05T12:51:45.997Z,30.40
2017-07-05T12:54:14.355Z,29.90
2017-07-05T12:56:42.664Z,29.40
2017-07-05T12:59:11.177Z,29.40
2017-07-05T13:01:38.748Z,29.40
2017-07-05T13:04:07.101Z,29.10
2017-07-05T13:06:35.502Z,27.80
2017-07-05T13:09:03.817Z,28.50
2017-07-05T13:11:32.144Z,29.20
2017-07-05T13:14:00.474Z,29.80
2017-07-05T13:16:28.806Z,29.30
2017-07-05T13:18:57.120Z,29.10
2017-07-05T13:21:25.455Z,28.20
2017-07-05T13:23:53.777Z,27.50
2017-07-05T13:26:22.104Z,28.00
2017-07-05T13:28:50.444Z,28.10
2017-07-05T13:31:18.756Z,27.90
2017-07-05T13:33:47.086Z,28.40
2017-07-05T13:36:15.403Z,27.90
2017-07-05T13:38:43.742Z,27.60
2017-07-05T13:41:12.052Z,27.90
2017-07-05T13:43:40.394Z,27.90
2017-07-05T13:46:08.812Z,28.30
2017-07-05T13:48:37.119Z,27.90
2017-07-05T13:51:05.450Z,28.10
2017-07-05T13:53:33.763Z,27.80
2017-07-05T13:56:02.109Z,27.90
2017-07-05T13:58:30.420Z,27.70
2017-07-05T14:00:58.809Z,27.90
2017-07-05T14:03:27.176Z,27.50
2017-07-05T14:05:55.514Z,28.10
2017-07-05T14:08:23.832Z,28.20
2017-07-05T14:10:52.185Z,28.10
2017-07-05T14:13:20.552Z,28.90
2017-07-05T14:15:48.869Z,30.00
2017-07-05T14:18:17.204Z,30.00
2017-07-05T14:20:45.519Z,30.10
2017-07-05T14:23:13.861Z,30.10
2017-07-05T14:25:42.169Z,30.20
2017-07-05T14:28:10.507Z,31.00
2017-07-05T14:30:38.828Z,30.90
2017-07-05T14:33:07.144Z,31.20
2017-07-05T14:35:35.482Z,30.50
2017-07-05T14:38:03.794Z,29.70
2017-07-05T14:40:32.139Z,29.60
2017-07-05T14:43:00.463Z,29.30
2017-07-05T14:45:28.798Z,29.60
2017-07-05T14:47:57.122Z,29.90
2017-07-05T14:50:25.464Z,30.00
2017-07-05T14:52:53.797Z,30.20
2017-07-05T14:55:22.113Z,30.20
2017-07-05T14:57:49.692Z,30.10
2017-07-05T15:00:18.001Z,29.00
2017-07-05T15:02:46.338Z,28.80
2017-07-05T15:05:14.652Z,28.40
2017-07-05T15:07:42.986Z,29.20
2017-07-05T15:10:11.295Z,29.90
2017-07-05T15:12:39.641Z,29.80
2017-07-05T15:15:07.955Z,30.30
2017-07-05T15:17:35.497Z,30.30
2017-07-05T15:20:03.834Z,30.40
2017-07-05T15:22:32.153Z,30.00
2017-07-05T15:25:01.092Z,30.30
2017-07-05T15:27:29.480Z,30.10
2017-07-05T15:29:57.822Z,29.30
2017-07-05T15:32:26.137Z,28.40
2017-07-05T15:34:54.476Z,28.40
2017-07-05T15:37:22.792Z,28.60
2017-07-05T15:39:51.104Z,29.00
2017-07-05T15:42:19.448Z,29.30
2017-07-05T15:44:47.804Z,29.50
2017-07-05T15:47:16.144Z,30.00
2017-07-05T15:49:44.466Z,30.00
2017-07-05T15:52:12.801Z,29.50
2017-07-05T15:54:41.109Z,30.10
2017-07-05T15:57:09.441Z,30.00
2017-07-05T15:59:37.763Z,30.00
2017-07-05T16:02:06.075Z,30.00
2017-07-05T16:04:34.411Z,30.40
2017-07-05T16:07:02.719Z,30.10
2017-07-05T16:09:31.106Z,30.30
2017-07-05T16:11:59.411Z,30.60
2017-07-05T16:14:27.753Z,30.00
2017-07-05T16:16:56.065Z,30.20
2017-07-05T16:19:24.414Z,30.10
2017-07-05T16:21:52.725Z,29.90
2017-07-05T16:24:21.032Z,30.40
2017-07-05T16:26:49.527Z,30.50
2017-07-05T16:29:17.839Z,30.90
2017-07-05T16:31:46.197Z,31.60
2017-07-05T16:34:14.506Z,31.90
2017-07-05T16:36:42.841Z,32.60
2017-07-05T16:39:11.176Z,33.20
2017-07-05T16:41:39.585Z,33.30
2017-07-05T16:44:07.906Z,33.00
2017-07-05T16:46:36.289Z,32.80
2017-07-05T16:49:04.633Z,33.30
2017-07-05T16:51:32.977Z,33.50
2017-07-05T16:54:01.314Z,33.60
2017-07-05T16:56:29.636Z,33.70
2017-07-05T16:58:58.070Z,33.90
2017-07-05T17:01:26.383Z,34.50
2017-07-05T17:03:54.757Z,34.40
2017-07-05T17:06:23.073Z,34.00
2017-07-05T17:08:51.408Z,33.20
2017-07-05T17:11:19.774Z,32.00
2017-07-05T17:13:48.088Z,30.90
2017-07-05T17:16:16.434Z,30.40
2017-07-05T17:18:44.748Z,29.50
2017-07-05T17:21:13.082Z,28.40
2017-07-05T17:23:41.404Z,27.60
2017-07-05T17:26:09.723Z,26.20
2017-07-05T17:28:38.075Z,24.80
2017-07-05T17:31:06.389Z,25.10
2017-07-05T17:33:34.733Z,25.90
2017-07-05T17:36:03.045Z,27.00
2017-07-05T17:38:31.394Z,28.70
2017-07-05T17:40:59.745Z,30.00
2017-07-05T17:43:28.058Z,31.00
2017-07-05T17:45:56.479Z,31.60
2017-07-05T17:48:24.985Z,32.30
2017-07-05T17:50:53.331Z,33.10
2017-07-05T17:53:21.658Z,33.80
2017-07-05T17:55:49.999Z,34.80
2017-07-05T17:58:18.313Z,35.60
2017-07-05T18:00:46.661Z,35.70
2017-07-05T18:03:15.011Z,36.10
2017-07-05T18:05:43.324Z,35.30
2017-07-05T18:08:11.652Z,34.00
2017-07-05T18:10:39.970Z,31.90
2017-07-05T18:13:08.313Z,29.50
2017-07-05T18:15:36.632Z,28.20
2017-07-05T18:18:04.966Z,27.40
2017-07-05T18:20:33.287Z,26.80
2017-07-05T18:23:01.640Z,26.30
2017-07-05T18:25:29.955Z,26.20
2017-07-05T18:27:58.317Z,26.00
2017-07-05T18:30:26.657Z,26.20
2017-07-05T18:32:55.241Z,26.80
2017-07-05T18:35:23.576Z,26.40
2017-07-05T18:37:51.908Z,26.40
2017-07-05T18:40:20.245Z,27.50
2017-07-05T18:42:48.556Z,29.00
2017-07-05T18:45:16.905Z,30.80
2017-07-05T18:47:45.217Z,32.60
2017-07-05T18:50:13.536Z,34.60
2017-07-05T18:52:41.868Z,36.10
2017-07-05T18:55:10.192Z,37.50
2017-07-05T18:57:38.525Z,39.00
2017-07-05T19:00:06.092Z,39.00
2017-07-05T19:02:34.430Z,40.80
2017-07-05T19:05:02.748Z,41.70
2017-07-05T19:07:31.098Z,42.50
2017-07-05T19:09:59.421Z,43.30
2017-07-05T19:12:27.745Z,43.80
2017-07-05T19:14:56.098Z,44.60
2017-07-05T19:17:24.414Z,45.20
2017-07-05T19:19:52.766Z,45.80
2017-07-05T19:22:21.133Z,46.40
2017-07-05T19:24:49.479Z,46.60
2017-07-05T19:27:17.788Z,47.00
2017-07-05T19:29:45.378Z,46.90
2017-07-05T19:32:13.700Z,47.70
2017-07-05T19:34:42.023Z,48.00
2017-07-05T19:37:10.367Z,48.60
2017-07-05T19:39:38.684Z,49.30
2017-07-05T19:42:07.030Z,49.90
2017-07-05T19:44:35.360Z,50.20
2017-07-05T19:47:03.703Z,50.80
2017-07-05T19:49:32.026Z,51.40
2017-07-05T19:52:00.368Z,51.80
2017-07-05T19:54:28.705Z,52.50
2017-07-05T19:56:57.191Z,52.80
2017-07-05T19:59:25.537Z,53.00
2017-07-05T20:01:53.870Z,53.50
2017-07-05T20:04:22.207Z,54.10
2017-07-05T20:06:50.520Z,54.30
2017-07-05T20:09:18.865Z,55.00
2017-07-05T20:11:47.190Z,55.30
2017-07-05T20:14:15.548Z,56.10
2017-07-05T20:16:43.883Z,56.80
2017-07-05T20:19:12.218Z,56.60
2017-07-05T20:21:40.595Z,56.60
2017-07-05T20:24:08.911Z,56.80
2017-07-05T20:26:36.553Z,57.30
2017-07-05T20:29:04.878Z,57.00
2017-07-05T20:31:33.225Z,57.70
2017-07-05T20:34:01.627Z,57.70
2017-07-05T20:36:30.050Z,58.30
2017-07-05T20:38:58.400Z,58.70
2017-07-05T20:41:26.810Z,59.20
2017-07-05T20:43:55.222Z,59.60
2017-07-05T20:46:23.642Z,59.80
2017-07-05T20:48:52.052Z,59.90
2017-07-05T20:51:20.499Z,60.80
2017-07-05T20:53:49.184Z,60.60
2017-07-05T20:56:17.547Z,61.00
2017-07-05T20:58:45.900Z,61.20
2017-07-05T21:01:14.222Z,61.70
2017-07-05T21:03:42.538Z,62.40
2017-07-05T21:06:10.882Z,62.60
2017-07-05T21:08:39.205Z,62.60
2017-07-05T21:11:07.537Z,63.40
2017-07-05T21:13:35.851Z,63.50
2017-07-05T21:16:04.191Z,63.90
2017-07-05T21:18:32.515Z,64.40
2017-07-05T21:21:00.869Z,65.00
2017-07-05T21:23:29.183Z,65.30
2017-07-05T21:25:57.502Z,66.00
2017-07-05T21:28:25.845Z,66.60
2017-07-05T21:30:54.156Z,66.50
2017-07-05T21:33:22.489Z,66.70
2017-07-05T21:35:50.811Z,67.20
2017-07-05T21:38:19.144Z,67.60
2017-07-05T21:40:47.516Z,68.00
2017-07-05T21:43:15.848Z,68.50
2017-07-05T21:45:44.196Z,69.10
2017-07-05T21:48:12.521Z,69.60
2017-07-05T21:50:40.868Z,70.30
2017-07-05T21:53:09.188Z,70.60
2017-07-05T21:55:37.528Z,70.40
2017-07-05T21:58:05.910Z,70.70
2017-07-05T22:00:34.265Z,71.00
2017-07-05T22:03:02.581Z,71.30
2017-07-05T22:05:30.937Z,71.70
2017-07-05T22:07:59.270Z,71.80
2017-07-05T22:10:27.637Z,71.90
2017-07-05T22:12:55.964Z,72.30
2017-07-05T22:15:24.289Z,72.80
2017-07-05T22:17:52.637Z,73.50
2017-07-05T22:20:21.034Z,73.00
2017-07-05T22:22:49.373Z,73.10
2017-07-05T22:25:17.692Z,73.20
2017-07-05T22:27:46.041Z,73.30
2017-07-05T22:30:14.362Z,73.40
2017-07-05T22:32:42.731Z,73.50
2017-07-05T22:35:11.047Z,73.50
2017-07-05T22:37:39.385Z,73.90
2017-07-05T22:40:07.733Z,73.90
2017-07-05T22:42:36.077Z,73.90
2017-07-05T22:45:04.409Z,74.00
2017-07-05T22:47:32.730Z,74.10
2017-07-05T22:50:01.081Z,74.20
2017-07-05T22:52:29.404Z,74.40
2017-07-05T22:54:57.750Z,74.70
2017-07-05T22:57:26.065Z,74.70
2017-07-05T22:59:54.385Z,74.80
2017-07-05T23:02:22.739Z,75.10
2017-07-05T23:04:51.059Z,75.30
2017-07-05T23:07:19.400Z,75.10
2017-07-05T23:09:47.727Z,75.30
2017-07-05T23:12:16.071Z,75.20
2017-07-05T23:14:44.386Z,75.20
2017-07-05T23:17:12.736Z,75.30
2017-07-05T23:19:41.057Z,75.50
2017-07-05T23:22:09.379Z,75.60
2017-07-05T23:24:37.725Z,75.60
2017-07-05T23:27:06.048Z,75.70
2017-07-05T23:29:34.393Z,75.90
2017-07-05T23:32:02.723Z,76.00
2017-07-05T23:34:31.066Z,76.20
2017-07-05T23:36:59.394Z,76.10
2017-07-05T23:39:27.747Z,76.20
2017-07-05T23:41:55.300Z,76.10
2017-07-05T23:44:23.617Z,77.10
2017-07-05T23:46:51.957Z,77.20
2017-07-05T23:49:20.272Z,77.10
2017-07-05T23:51:48.609Z,77.00
2017-07-05T23:54:16.924Z,77.20
2017-07-05T23:56:45.274Z,77.00
2017-07-05T23:59:13.590Z,77.10
